»·PEaware :: N952FG KPGA-KSEZ

N952FG :: KPGA-KSEZ

FLIGHT INFORMATION

Flight Status: Arrived
Operator: Privately registered:
United States
More flights under this callsign
Pilot: Michael M. (122)
Aircraft: SOCATA TBM-900
(TBM9)
More flights by this aircraft type
Origin: KPGA Page Mun
United States
Destination: KSEZ Sedona
United States
More flights between these airports :: More routes between these airports
Route: TBC FLG
File this flight plan on PilotEdge
Remarks:
Altitude:
(Current/Filed)
22,000ft
Speed:
(Current/Filed)
250kts
Departed: 12-Mar-19 02:03 PM
Arrived: 12-Mar-19 02:47 PM
Distance/Time
Traveled:
126nm/0:43
Distance/Time
To Go:
Arrived

Flight Plot

Page will automatically refresh every two minutes.

Flight plan parsing failed; only flown route is shown


Map Options




Map Legend


Flown Route
Filed Route
Departure Airport
Arrival Airport
Navaid (VOR, NDB)
Fix

Horizontal Profiles

Position Reports

Time Latitude Longitude Heading Altitude Ground
Speed
12-Mar-19 13:48 36.926445 -111.451111 259 4315ft 0kts
12-Mar-19 13:49 36.926445 -111.451111 259 4315ft 0kts
12-Mar-19 13:50 36.926445 -111.451111 259 4315ft 0kts
12-Mar-19 13:51 36.926445 -111.451111 259 4315ft 0kts
12-Mar-19 13:52 36.926445 -111.451111 259 4315ft 0kts
12-Mar-19 13:53 36.926445 -111.451111 259 4315ft 0kts
12-Mar-19 13:54 36.926180 -111.450822 86 4315ft 5kts
12-Mar-19 13:55 36.926728 -111.449288 349 4315ft 9kts
12-Mar-19 13:56 36.928199 -111.449609 350 4315ft 0kts
12-Mar-19 13:57 36.928199 -111.449609 350 4315ft 0kts
12-Mar-19 13:58 36.928309 -111.449633 350 4315ft 2kts
12-Mar-19 13:59 36.930165 -111.450034 350 4315ft 9kts
12-Mar-19 14:00 36.932646 -111.450354 74 4315ft 4kts
12-Mar-19 14:01 36.932472 -111.449469 170 4315ft 7kts
12-Mar-19 14:02 36.908047 -111.444200 168 4928ft 144kts
12-Mar-19 14:03 36.869254 -111.434210 169 7112ft 142kts
12-Mar-19 14:04 36.830844 -111.425557 169 9084ft 141kts
12-Mar-19 14:05 36.792390 -111.416994 170 11119ft 141kts
12-Mar-19 14:06 36.755227 -111.408773 170 13524ft 134kts
12-Mar-19 14:07 36.717204 -111.400367 169 16076ft 137kts
12-Mar-19 14:08 36.678634 -111.391828 169 18188ft 142kts
12-Mar-19 14:09 36.639796 -111.383245 170 20841ft 133kts
12-Mar-19 14:10 36.596150 -111.373643 170 21819ft 194kts
12-Mar-19 14:11 36.534047 -111.359967 170 21783ft 236kts
12-Mar-19 14:12 36.465167 -111.344807 170 21774ft 247kts
12-Mar-19 14:13 36.394543 -111.329299 170 21771ft 249kts
12-Mar-19 14:14 36.324009 -111.313847 169 21771ft 249kts
12-Mar-19 14:15 36.253824 -111.298492 169 21768ft 249kts
12-Mar-19 14:16 36.183161 -111.283065 169 21767ft 249kts
12-Mar-19 14:17 36.112524 -111.273096 194 21736ft 254kts
12-Mar-19 14:18 36.043067 -111.302470 194 21466ft 262kts
12-Mar-19 14:19 35.967722 -111.334070 194 19903ft 277kts
12-Mar-19 14:20 35.892506 -111.365540 195 18915ft 277kts
12-Mar-19 14:21 35.823035 -111.394569 195 18205ft 277kts
12-Mar-19 14:22 35.748240 -111.425762 195 17591ft 277kts
12-Mar-19 14:23 35.673408 -111.456902 195 17118ft 275kts
12-Mar-19 14:24 35.599444 -111.487624 195 16492ft 271kts
12-Mar-19 14:25 35.526015 -111.518060 196 15625ft 270kts
12-Mar-19 14:26 35.453162 -111.548198 196 14901ft 268kts
12-Mar-19 14:27 35.379906 -111.578455 196 14260ft 267kts
12-Mar-19 14:28 35.308308 -111.607964 196 13995ft 258kts
12-Mar-19 14:29 35.240292 -111.635949 196 13998ft 253kts
12-Mar-19 14:30 35.172040 -111.663975 195 13997ft 251kts
12-Mar-19 14:31 35.103872 -111.690813 194 13812ft 243kts
12-Mar-19 14:32 35.036429 -111.716648 195 11799ft 245kts
12-Mar-19 14:33 34.969469 -111.742263 196 9299ft 244kts
12-Mar-19 14:34 34.924635 -111.788527 237 8968ft 214kts
12-Mar-19 14:35 34.893418 -111.852672 236 9971ft 225kts
12-Mar-19 14:36 34.857954 -111.925249 236 10000ft 250kts
12-Mar-19 14:37 34.822109 -111.998548 236 9977ft 223kts
12-Mar-19 14:38 34.780255 -112.035791 142 9884ft 204kts
12-Mar-19 14:39 34.741810 -111.985082 137 9073ft 198kts
12-Mar-19 14:40 34.735754 -111.928636 47 7714ft 202kts
12-Mar-19 14:41 34.773411 -111.882028 48 6568ft 176kts
12-Mar-19 14:42 34.807256 -111.839949 47 6347ft 180kts
12-Mar-19 14:43 34.840001 -111.798163 62 5209ft 113kts
12-Mar-19 14:44 34.863641 -111.763840 337 5756ft 115kts
12-Mar-19 14:45 34.849699 -111.787029 227 4835ft 66kts
12-Mar-19 14:46 34.849154 -111.789867 315 4833ft 1kts
12-Mar-19 14:47 34.849169 -111.789884 314 4833ft 0kts
12-Mar-19 14:48 34.849169 -111.789884 314 4833ft 0kts
12-Mar-19 14:49 34.849169 -111.789884 314 4833ft 0kts
12-Mar-19 14:50 34.849169 -111.789884 314 4833ft 0kts
12-Mar-19 14:51 34.849169 -111.789884 314 4833ft 0kts

Navigation Log

Ident Type
Flight plan parsing failed, navigation log unavailable